Terminal Aerodrome Forecast
Issued by NWS Charleston, WV

Current Version | Previous Version | Graphics & Text | Print | Product List | Glossary On
Versions: 1 2 3 4 5 6 7 8 9 10 11 12 13 14 15 16 17 18 19 20 21 22 23 24
000
FTUS41 KRLX 300500
TAFHTS
TAF
KHTS 300538Z 3006/3106 VRB03KT P6SM SCT200
     FM301000 00000KT 4SM BR SCT060
     FM301200 VRB03KT 6SM BR FEW070
     FM301300 19005KT P6SM SCT050
     FM310100 22005KT P6SM BKN060=

USA.gov is the U.S. government's official web portal to all federal, state and local government web resources and services.